Time;durP1;ratioP1;P1;durP2;ratioP2;P2;SDS_P1;SDS_P2;PMS_P1;PMS_P2;Temp;Humidity;BMP_temperature;BMP_pressure;BME280_temperature;BME280_humidity;BME280_pressure;Samples;Min_cycle;Max_cycle;Signal;HPM_P1;HPM_P2
2022/03/10 00:00:27;;;;;;;8.03;6.17;;;;;;;;;;5070725;28;20184;-57
2022/03/10 00:02:53;;;;;;;7.37;6.33;;;;;;;;;;5064566;28;20530;-57
2022/03/10 00:05:19;;;;;;;8.27;6.37;;;;;;;;;;5071237;28;20191;-57
2022/03/10 00:07:47;;;;;;;7.37;6.13;;;;;;;;;;5074003;28;20236;-57
2022/03/10 00:10:13;;;;;;;7.40;6.13;;;;;;;;;;5087734;28;20186;-56
2022/03/10 00:12:46;;;;;;;7.33;6.30;;;;;;;;;;5085178;28;20546;-58
2022/03/10 00:15:12;;;;;;;6.77;5.90;;;;;;;;;;5070912;28;20179;-57
2022/03/10 00:17:39;;;;;;;7.63;6.33;;;;;;;;;;5088064;28;20203;-57
2022/03/10 00:20:05;;;;;;;8.03;6.50;;;;;;;;;;5069486;28;20186;-58
2022/03/10 00:22:31;;;;;;;7.90;6.30;;;;;;;;;;5088065;28;20225;-59
2022/03/10 00:24:58;;;;;;;7.87;5.50;;;;;;;;;;5068813;28;20689;-57
2022/03/10 00:27:24;;;;;;;7.83;5.77;;;;;;;;;;5071482;28;20245;-57
2022/03/10 00:29:53;;;;;;;7.17;5.87;;;;;;;;;;5070685;28;20183;-58
2022/03/10 00:32:20;;;;;;;7.23;5.77;;;;;;;;;;5070600;28;20215;-58
2022/03/10 00:34:46;;;;;;;7.57;6.23;;;;;;;;;;5080125;28;20642;-58
2022/03/10 00:37:12;;;;;;;6.97;6.23;;;;;;;;;;5088506;28;20413;-58
2022/03/10 00:39:39;;;;;;;6.53;5.70;;;;;;;;;;5086253;28;20214;-58
2022/03/10 00:42:05;;;;;;;7.93;6.67;;;;;;;;;;5050716;28;20180;-57
2022/03/10 00:44:31;;;;;;;8.30;5.97;;;;;;;;;;5068358;28;20208;-59
2022/03/10 00:47:01;;;;;;;6.33;5.70;;;;;;;;;;5088601;28;20184;-56
2022/03/10 00:49:29;;;;;;;8.03;6.13;;;;;;;;;;5077076;28;20179;-56
2022/03/10 00:51:55;;;;;;;8.67;6.70;;;;;;;;;;5069838;28;20190;-58
2022/03/10 00:54:22;;;;;;;8.20;5.77;;;;;;;;;;5088040;28;20180;-56
2022/03/10 00:56:48;;;;;;;6.93;5.67;;;;;;;;;;5067682;28;20586;-56
2022/03/10 00:59:14;;;;;;;6.53;5.83;;;;;;;;;;5080127;28;20211;-57
2022/03/10 01:01:40;;;;;;;7.10;5.77;;;;;;;;;;5070348;28;20217;-57
2022/03/10 01:04:07;;;;;;;8.27;6.23;;;;;;;;;;5084507;28;20164;-57
2022/03/10 01:06:33;;;;;;;8.43;6.03;;;;;;;;;;5087607;28;20175;-58
2022/03/10 01:08:59;;;;;;;7.43;6.33;;;;;;;;;;5088196;28;20175;-57
2022/03/10 01:11:26;;;;;;;7.30;5.97;;;;;;;;;;5068384;28;20318;-57
2022/03/10 01:13:52;;;;;;;7.50;5.70;;;;;;;;;;5059672;28;20215;-57
2022/03/10 01:16:19;;;;;;;8.23;6.27;;;;;;;;;;5032252;28;20193;-56
2022/03/10 01:18:45;;;;;;;6.97;6.27;;;;;;;;;;5060595;28;20208;-57
2022/03/10 01:21:13;;;;;;;8.23;6.50;;;;;;;;;;5048620;28;20253;-57
2022/03/10 01:23:39;;;;;;;7.67;6.53;;;;;;;;;;5066846;28;20176;-56
2022/03/10 01:26:05;;;;;;;7.40;5.90;;;;;;;;;;5056358;28;20181;-56
2022/03/10 01:28:31;;;;;;;7.43;6.53;;;;;;;;;;5037636;28;20232;-57
2022/03/10 01:30:57;;;;;;;8.17;5.97;;;;;;;;;;5058899;28;20189;-56
2022/03/10 01:33:23;;;;;;;6.37;5.47;;;;;;;;;;5054371;28;20547;-57
2022/03/10 01:35:49;;;;;;;10.63;6.50;;;;;;;;;;5060392;28;20574;-57
2022/03/10 01:38:16;;;;;;;10.03;6.27;;;;;;;;;;5032252;28;20200;-58
2022/03/10 01:40:44;;;;;;;9.23;6.00;;;;;;;;;;5047468;28;20267;-59
2022/03/10 01:43:10;;;;;;;7.97;6.83;;;;;;;;;;5065464;28;20179;-58
2022/03/10 01:45:36;;;;;;;8.00;5.90;;;;;;;;;;5038013;28;20176;-58
2022/03/10 01:48:02;;;;;;;8.63;6.10;;;;;;;;;;5056050;28;20545;-58
2022/03/10 01:50:29;;;;;;;8.20;6.53;;;;;;;;;;5068992;28;20631;-58
2022/03/10 01:52:55;;;;;;;7.07;6.07;;;;;;;;;;5070572;28;20177;-57
2022/03/10 01:55:22;;;;;;;7.17;5.87;;;;;;;;;;5043106;28;20671;-58
2022/03/10 01:57:48;;;;;;;7.13;5.87;;;;;;;;;;5053616;28;20250;-58
2022/03/10 02:00:16;;;;;;;8.33;6.80;;;;;;;;;;5017807;28;20173;-57
2022/03/10 02:02:42;;;;;;;6.77;5.83;;;;;;;;;;5033910;28;20180;-59
2022/03/10 02:05:09;;;;;;;8.40;6.00;;;;;;;;;;5048273;28;20177;-56
2022/03/10 02:10:20;;;;;;;7.70;6.73;;;;;;;;;;5052744;28;20207;-56
2022/03/10 02:12:54;;;;;;;8.60;6.20;;;;;;;;;;5064231;28;20295;-57
2022/03/10 02:18:08;;;;;;;7.07;5.57;;;;;;;;;;5091310;28;20212;-57
2022/03/10 02:20:35;;;;;;;7.13;6.33;;;;;;;;;;5091591;28;20224;-57
2022/03/10 02:23:01;;;;;;;7.50;6.47;;;;;;;;;;5071270;28;20689;-56
2022/03/10 02:25:28;;;;;;;9.00;6.20;;;;;;;;;;5091333;28;20259;-58
2022/03/10 02:27:56;;;;;;;7.90;5.77;;;;;;;;;;5063098;28;20188;-58
2022/03/10 02:30:23;;;;;;;8.33;6.63;;;;;;;;;;5081877;28;20183;-58
2022/03/10 02:32:50;;;;;;;6.37;5.20;;;;;;;;;;5072713;28;20196;-57
2022/03/10 02:35:16;;;;;;;6.97;5.20;;;;;;;;;;5082015;28;20180;-58
2022/03/10 02:37:42;;;;;;;6.90;6.00;;;;;;;;;;5071825;28;20777;-59
2022/03/10 02:40:09;;;;;;;7.20;6.27;;;;;;;;;;5083661;28;20186;-58
2022/03/10 02:42:35;;;;;;;8.00;6.00;;;;;;;;;;5091505;28;20191;-57
2022/03/10 02:45:02;;;;;;;7.50;5.43;;;;;;;;;;5084126;28;20180;-57
2022/03/10 02:47:28;;;;;;;7.27;5.80;;;;;;;;;;5089989;28;20219;-57
2022/03/10 02:49:54;;;;;;;6.77;5.70;;;;;;;;;;5090166;28;20270;-56
2022/03/10 02:52:20;;;;;;;6.60;5.63;;;;;;;;;;5088963;28;20184;-56
2022/03/10 02:54:46;;;;;;;8.93;6.03;;;;;;;;;;5090719;28;20183;-56
2022/03/10 02:57:13;;;;;;;7.37;5.30;;;;;;;;;;5087315;28;20202;-57
2022/03/10 02:59:40;;;;;;;7.50;6.03;;;;;;;;;;5088384;28;20376;-57
2022/03/10 03:02:06;;;;;;;7.10;5.90;;;;;;;;;;5083006;28;20176;-56
2022/03/10 03:04:32;;;;;;;6.80;6.10;;;;;;;;;;5085419;28;20217;-57
2022/03/10 03:06:59;;;;;;;6.53;5.83;;;;;;;;;;5053237;28;20184;-56
2022/03/10 03:09:25;;;;;;;7.43;5.40;;;;;;;;;;5091099;28;20176;-56
2022/03/10 03:11:51;;;;;;;7.73;6.17;;;;;;;;;;5071717;28;20208;-57
2022/03/10 03:14:17;;;;;;;7.43;6.13;;;;;;;;;;5078740;28;20528;-56
2022/03/10 03:16:44;;;;;;;8.43;6.67;;;;;;;;;;5083772;28;20266;-56
2022/03/10 03:19:10;;;;;;;7.50;6.40;;;;;;;;;;5072304;28;20337;-56
2022/03/10 03:21:36;;;;;;;6.13;5.37;;;;;;;;;;5071398;28;20291;-57
2022/03/10 03:24:03;;;;;;;9.37;7.10;;;;;;;;;;5072799;28;20557;-57
2022/03/10 03:26:29;;;;;;;7.50;6.67;;;;;;;;;;5090210;28;20734;-56
2022/03/10 03:28:55;;;;;;;7.67;6.40;;;;;;;;;;5072237;28;20647;-56
2022/03/10 03:31:21;;;;;;;7.37;5.77;;;;;;;;;;5089285;28;20206;-56
2022/03/10 03:33:50;;;;;;;7.57;6.40;;;;;;;;;;5081124;28;20195;-56
2022/03/10 03:36:16;;;;;;;7.17;5.80;;;;;;;;;;5071060;28;20188;-58
2022/03/10 03:38:43;;;;;;;7.40;6.30;;;;;;;;;;5072045;28;20278;-56
2022/03/10 03:41:09;;;;;;;6.90;6.20;;;;;;;;;;5084052;28;20211;-56
2022/03/10 03:43:35;;;;;;;7.37;6.33;;;;;;;;;;5071576;28;20182;-57
2022/03/10 03:46:02;;;;;;;7.57;6.10;;;;;;;;;;5089522;28;20195;-57
2022/03/10 03:48:28;;;;;;;8.13;6.30;;;;;;;;;;5070888;28;20263;-58
2022/03/10 03:50:54;;;;;;;7.53;6.40;;;;;;;;;;5089719;28;20176;-57
2022/03/10 03:53:20;;;;;;;9.07;6.80;;;;;;;;;;5065003;28;20819;-58
2022/03/10 03:55:46;;;;;;;7.90;5.93;;;;;;;;;;5089703;28;20172;-58
2022/03/10 03:58:12;;;;;;;6.33;5.60;;;;;;;;;;5089551;28;20244;-58
2022/03/10 04:00:39;;;;;;;7.03;6.03;;;;;;;;;;5071309;28;20180;-58
2022/03/10 04:03:12;;;;;;;6.47;5.60;;;;;;;;;;5063157;28;20188;-58
2022/03/10 04:05:40;;;;;;;7.37;6.07;;;;;;;;;;5080097;28;20182;-58
2022/03/10 04:08:07;;;;;;;8.60;5.80;;;;;;;;;;5088320;28;20175;-57
2022/03/10 04:10:33;;;;;;;7.90;5.83;;;;;;;;;;5089649;28;20224;-59
2022/03/10 04:12:59;;;;;;;7.47;5.87;;;;;;;;;;5088922;28;20653;-57
2022/03/10 04:15:26;;;;;;;9.20;6.47;;;;;;;;;;5089489;28;20183;-58
2022/03/10 04:17:53;;;;;;;7.80;6.87;;;;;;;;;;5088554;28;20581;-57
2022/03/10 04:20:21;;;;;;;8.73;6.07;;;;;;;;;;5070526;28;20227;-57
2022/03/10 04:22:47;;;;;;;8.63;6.20;;;;;;;;;;5052250;28;20190;-57
2022/03/10 04:25:13;;;;;;;8.77;6.07;;;;;;;;;;5068229;28;20176;-57
2022/03/10 04:27:40;;;;;;;6.87;5.90;;;;;;;;;;5066017;28;20190;-58
2022/03/10 04:30:06;;;;;;;6.93;5.73;;;;;;;;;;5089478;28;20195;-57
2022/03/10 04:32:40;;;;;;;5.17;4.67;;;;;;;;;;5089206;28;20580;-57
2022/03/10 04:35:07;;;;;;;7.97;6.23;;;;;;;;;;5071179;28;20188;-57
2022/03/10 04:37:34;;;;;;;6.30;5.40;;;;;;;;;;5078188;28;20246;-57
2022/03/10 04:40:01;;;;;;;6.90;6.03;;;;;;;;;;5064622;28;20527;-57
2022/03/10 04:42:28;;;;;;;7.83;6.03;;;;;;;;;;5077583;28;20173;-58
2022/03/10 04:44:54;;;;;;;14.33;6.00;;;;;;;;;;5083451;28;20766;-57
2022/03/10 04:47:20;;;;;;;6.27;5.30;;;;;;;;;;5088769;28;20195;-57
2022/03/10 04:49:46;;;;;;;7.47;6.63;;;;;;;;;;5070184;28;20178;-58
2022/03/10 04:52:13;;;;;;;7.87;6.23;;;;;;;;;;5086101;28;20200;-57
2022/03/10 04:54:39;;;;;;;7.13;5.90;;;;;;;;;;5069981;28;20229;-56
2022/03/10 04:57:07;;;;;;;6.97;5.70;;;;;;;;;;5086467;28;20199;-57
2022/03/10 04:59:33;;;;;;;7.73;6.20;;;;;;;;;;5070031;28;20242;-57
2022/03/10 05:01:59;;;;;;;10.67;6.97;;;;;;;;;;5086713;28;20183;-57
2022/03/10 05:04:25;;;;;;;6.83;5.63;;;;;;;;;;5050323;28;20275;-59
2022/03/10 05:06:51;;;;;;;9.20;6.63;;;;;;;;;;5086957;28;20203;-58
2022/03/10 05:09:18;;;;;;;7.63;6.87;;;;;;;;;;5071960;28;20187;-57
2022/03/10 05:11:44;;;;;;;7.67;6.30;;;;;;;;;;5058392;28;20232;-57
2022/03/10 05:14:10;;;;;;;7.43;6.60;;;;;;;;;;5079971;28;20220;-58
2022/03/10 05:16:37;;;;;;;7.90;6.27;;;;;;;;;;5069153;28;20176;-57
2022/03/10 05:19:03;;;;;;;8.50;6.63;;;;;;;;;;5070020;28;20920;-58
2022/03/10 05:21:29;;;;;;;8.40;6.17;;;;;;;;;;5063870;28;20172;-59
2022/03/10 05:23:55;;;;;;;7.80;6.47;;;;;;;;;;5087012;28;20175;-59
2022/03/10 05:26:21;;;;;;;7.97;6.20;;;;;;;;;;5055425;28;20187;-57
2022/03/10 05:28:48;;;;;;;7.37;6.40;;;;;;;;;;5082647;28;20175;-58
2022/03/10 05:31:14;;;;;;;8.87;6.50;;;;;;;;;;5067313;28;20202;-59
2022/03/10 05:33:41;;;;;;;9.03;6.40;;;;;;;;;;5086770;28;20186;-58
2022/03/10 05:36:07;;;;;;;7.13;6.23;;;;;;;;;;5066392;28;20187;-57
2022/03/10 05:38:33;;;;;;;7.40;6.60;;;;;;;;;;5064010;28;20195;-58
2022/03/10 05:41:00;;;;;;;7.27;6.27;;;;;;;;;;5092974;28;20551;-57
2022/03/10 05:43:27;;;;;;;6.50;5.77;;;;;;;;;;5082591;28;20213;-57
2022/03/10 05:45:53;;;;;;;7.63;6.73;;;;;;;;;;5085164;28;20179;-58
2022/03/10 05:48:20;;;;;;;7.90;6.50;;;;;;;;;;5052376;28;20175;-58
2022/03/10 05:50:46;;;;;;;8.77;6.87;;;;;;;;;;5080154;28;20532;-58
2022/03/10 05:53:12;;;;;;;9.23;7.13;;;;;;;;;;5067916;28;20203;-57
2022/03/10 05:55:39;;;;;;;7.73;6.27;;;;;;;;;;5094751;28;20669;-57
2022/03/10 05:58:05;;;;;;;7.23;6.47;;;;;;;;;;5104351;28;20274;-58
2022/03/10 06:00:32;;;;;;;8.00;7.10;;;;;;;;;;5073243;28;20174;-59
2022/03/10 06:02:58;;;;;;;8.67;6.70;;;;;;;;;;5047897;28;20263;-57
2022/03/10 06:05:25;;;;;;;8.37;7.07;;;;;;;;;;5069740;28;20647;-55
2022/03/10 06:07:51;;;;;;;8.90;7.03;;;;;;;;;;5093959;28;20175;-57
2022/03/10 06:10:18;;;;;;;9.47;6.97;;;;;;;;;;5068719;28;20632;-56
2022/03/10 06:12:45;;;;;;;9.63;6.63;;;;;;;;;;5088802;28;20556;-56
2022/03/10 06:15:11;;;;;;;8.13;6.23;;;;;;;;;;5052348;28;20189;-57
2022/03/10 06:17:38;;;;;;;8.37;6.47;;;;;;;;;;5049860;28;20205;-55
2022/03/10 06:20:05;;;;;;;10.43;7.17;;;;;;;;;;5078018;28;20744;-57
2022/03/10 06:22:32;;;;;;;7.40;6.33;;;;;;;;;;5088635;28;20567;-56
2022/03/10 06:24:59;;;;;;;9.80;7.23;;;;;;;;;;5083245;28;20313;-56
2022/03/10 06:27:25;;;;;;;7.93;6.23;;;;;;;;;;5087210;28;20187;-57
2022/03/10 06:29:53;;;;;;;9.83;7.00;;;;;;;;;;5069684;28;20245;-58
2022/03/10 06:32:19;;;;;;;7.73;6.30;;;;;;;;;;5087521;28;20179;-57
2022/03/10 06:34:46;;;;;;;7.57;6.83;;;;;;;;;;5086013;28;20359;-56
2022/03/10 06:37:12;;;;;;;8.80;6.37;;;;;;;;;;5101418;28;20201;-57
2022/03/10 06:39:39;;;;;;;7.43;6.50;;;;;;;;;;5081212;28;20188;-57
2022/03/10 06:42:05;;;;;;;9.87;6.87;;;;;;;;;;5082112;28;20221;-56
2022/03/10 06:44:31;;;;;;;7.47;6.30;;;;;;;;;;5083641;28;20919;-56
2022/03/10 06:46:58;;;;;;;8.80;6.47;;;;;;;;;;5066065;28;20900;-58
2022/03/10 06:49:24;;;;;;;8.60;6.57;;;;;;;;;;5072617;28;20548;-57
2022/03/10 06:51:50;;;;;;;7.73;6.10;;;;;;;;;;5092248;28;20175;-56
2022/03/10 06:54:17;;;;;;;8.27;6.53;;;;;;;;;;5079295;28;20665;-58
2022/03/10 06:56:45;;;;;;;8.97;6.60;;;;;;;;;;5090474;28;20586;-56
2022/03/10 06:59:11;;;;;;;9.03;6.40;;;;;;;;;;5089864;28;20218;-56
2022/03/10 07:01:37;;;;;;;7.70;6.40;;;;;;;;;;5090383;28;20175;-58
2022/03/10 07:04:03;;;;;;;7.50;6.07;;;;;;;;;;5079323;28;20203;-57
2022/03/10 07:06:30;;;;;;;8.77;6.90;;;;;;;;;;5109778;28;20171;-57
2022/03/10 07:08:56;;;;;;;8.93;7.00;;;;;;;;;;5067374;28;20183;-57
2022/03/10 07:11:23;;;;;;;8.10;6.57;;;;;;;;;;5081731;28;20234;-58
2022/03/10 07:13:50;;;;;;;8.83;6.87;;;;;;;;;;5061650;28;20180;-56
2022/03/10 07:16:16;;;;;;;8.63;6.93;;;;;;;;;;5057165;28;20217;-57
2022/03/10 07:18:42;;;;;;;8.77;7.10;;;;;;;;;;5040828;28;20286;-59
2022/03/10 07:21:08;;;;;;;11.97;7.10;;;;;;;;;;5070124;28;20219;-57
2022/03/10 07:23:35;;;;;;;10.27;7.60;;;;;;;;;;5069001;28;20176;-58
2022/03/10 07:26:01;;;;;;;9.40;7.17;;;;;;;;;;5051768;28;20181;-57
2022/03/10 07:28:28;;;;;;;9.53;7.47;;;;;;;;;;5056818;28;20195;-58
2022/03/10 07:30:54;;;;;;;9.37;7.07;;;;;;;;;;5045408;28;20184;-58
2022/03/10 07:33:21;;;;;;;9.47;6.80;;;;;;;;;;5052203;28;20192;-57
2022/03/10 07:35:48;;;;;;;10.17;6.87;;;;;;;;;;5052092;28;20187;-57
2022/03/10 07:38:14;;;;;;;10.57;7.70;;;;;;;;;;5040468;28;20530;-58
2022/03/10 07:40:40;;;;;;;9.70;7.27;;;;;;;;;;5056215;28;20172;-57
2022/03/10 07:43:06;;;;;;;7.53;6.67;;;;;;;;;;5066357;28;20208;-57
2022/03/10 07:45:33;;;;;;;9.20;7.30;;;;;;;;;;5052118;28;20644;-56
2022/03/10 07:47:59;;;;;;;8.83;6.83;;;;;;;;;;5069240;28;20177;-57
2022/03/10 07:50:26;;;;;;;11.30;6.10;;;;;;;;;;5069207;28;20181;-57
2022/03/10 07:52:52;;;;;;;7.57;5.80;;;;;;;;;;5033475;28;20565;-57
2022/03/10 07:55:18;;;;;;;7.57;6.70;;;;;;;;;;5050622;28;20276;-57
2022/03/10 07:57:44;;;;;;;8.53;6.57;;;;;;;;;;5067568;28;20208;-57
2022/03/10 08:00:11;;;;;;;8.47;6.50;;;;;;;;;;5066602;28;20185;-57
2022/03/10 08:02:37;;;;;;;8.93;6.53;;;;;;;;;;5064715;28;20181;-56
2022/03/10 08:05:04;;;;;;;9.17;6.90;;;;;;;;;;5067878;28;20546;-57
2022/03/10 08:07:32;;;;;;;11.43;7.67;;;;;;;;;;5057166;28;20184;-56
2022/03/10 08:10:05;;;;;;;8.87;7.13;;;;;;;;;;5071584;28;20231;-57
2022/03/10 08:12:32;;;;;;;8.67;6.40;;;;;;;;;;5067866;28;20294;-56
2022/03/10 08:14:59;;;;;;;9.20;7.13;;;;;;;;;;5087143;28;20258;-58
2022/03/10 08:17:25;;;;;;;8.03;6.37;;;;;;;;;;5079880;28;20547;-57
2022/03/10 08:19:52;;;;;;;11.33;7.17;;;;;;;;;;5091361;28;20635;-57
2022/03/10 08:22:20;;;;;;;7.23;6.37;;;;;;;;;;5057417;28;20669;-59
2022/03/10 08:24:46;;;;;;;11.17;6.37;;;;;;;;;;5084754;28;20191;-59
2022/03/10 08:27:15;;;;;;;8.47;6.87;;;;;;;;;;5088834;28;20172;-58
2022/03/10 08:29:41;;;;;;;8.60;6.63;;;;;;;;;;5072361;28;20632;-59
2022/03/10 08:32:08;;;;;;;8.30;6.83;;;;;;;;;;5052463;28;20234;-58
2022/03/10 08:34:35;;;;;;;9.10;7.17;;;;;;;;;;5082154;28;21003;-59
2022/03/10 08:37:02;;;;;;;9.83;7.17;;;;;;;;;;5075340;28;20199;-57
2022/03/10 08:39:28;;;;;;;10.50;7.50;;;;;;;;;;5087638;28;20555;-58
2022/03/10 08:41:54;;;;;;;10.53;7.10;;;;;;;;;;5070313;28;20555;-59
2022/03/10 08:44:20;;;;;;;12.47;8.43;;;;;;;;;;5070778;28;20499;-58
2022/03/10 08:46:47;;;;;;;10.50;8.00;;;;;;;;;;5096789;28;20171;-59
2022/03/10 08:49:14;;;;;;;12.83;7.97;;;;;;;;;;5098002;28;20630;-58
2022/03/10 08:51:41;;;;;;;9.27;7.20;;;;;;;;;;5072061;28;20187;-57
2022/03/10 08:54:08;;;;;;;10.60;7.60;;;;;;;;;;5089926;28;20219;-59
2022/03/10 08:56:34;;;;;;;10.10;7.67;;;;;;;;;;5088505;28;20234;-57
2022/03/10 08:59:01;;;;;;;12.80;6.80;;;;;;;;;;5074105;28;20606;-58
2022/03/10 09:01:27;;;;;;;10.73;7.90;;;;;;;;;;5074536;28;20661;-58
2022/03/10 09:03:53;;;;;;;11.37;7.80;;;;;;;;;;5083435;28;20255;-58
2022/03/10 09:06:19;;;;;;;11.73;7.83;;;;;;;;;;5070198;28;20228;-59
2022/03/10 09:08:46;;;;;;;9.57;7.70;;;;;;;;;;5070344;28;20196;-58
2022/03/10 09:11:12;;;;;;;13.10;8.27;;;;;;;;;;5095959;28;20231;-58
2022/03/10 09:13:40;;;;;;;11.97;7.70;;;;;;;;;;5089481;28;20183;-58
2022/03/10 09:16:07;;;;;;;10.30;7.53;;;;;;;;;;5088683;28;20226;-57
2022/03/10 09:18:34;;;;;;;13.33;8.07;;;;;;;;;;5089110;28;20203;-58
2022/03/10 09:21:00;;;;;;;8.53;7.63;;;;;;;;;;5091549;28;20179;-57
2022/03/10 09:23:26;;;;;;;11.60;8.70;;;;;;;;;;5086926;28;20187;-58
2022/03/10 09:25:52;;;;;;;11.67;7.73;;;;;;;;;;5086537;28;20176;-58
2022/03/10 09:28:18;;;;;;;11.43;8.67;;;;;;;;;;5077335;28;20194;-58
2022/03/10 09:30:44;;;;;;;10.07;7.73;;;;;;;;;;5082290;28;20661;-58
2022/03/10 09:33:10;;;;;;;11.83;8.80;;;;;;;;;;5073470;28;20191;-58
2022/03/10 09:35:36;;;;;;;12.50;8.97;;;;;;;;;;5095035;28;20188;-57
2022/03/10 09:38:03;;;;;;;12.83;9.37;;;;;;;;;;5100373;28;20212;-58
2022/03/10 09:40:29;;;;;;;14.27;9.30;;;;;;;;;;5056514;28;20296;-57
2022/03/10 09:42:56;;;;;;;10.63;8.13;;;;;;;;;;5089083;28;20183;-59
2022/03/10 09:45:23;;;;;;;14.20;9.40;;;;;;;;;;5086884;28;20266;-57
2022/03/10 09:47:52;;;;;;;12.37;8.77;;;;;;;;;;5088484;28;20174;-57
2022/03/10 09:50:19;;;;;;;11.30;8.90;;;;;;;;;;5088591;28;20188;-57
2022/03/10 09:52:46;;;;;;;14.63;9.57;;;;;;;;;;5074636;28;20278;-61
2022/03/10 09:55:13;;;;;;;14.23;9.87;;;;;;;;;;5086144;28;20186;-58
2022/03/10 09:57:40;;;;;;;13.80;9.83;;;;;;;;;;5086907;28;20339;-57
2022/03/10 10:00:08;;;;;;;14.93;9.70;;;;;;;;;;5073748;28;20545;-57
2022/03/10 10:02:40;;;;;;;13.77;9.40;;;;;;;;;;5095621;28;20671;-57
2022/03/10 10:05:22;;;;;;;12.90;9.33;;;;;;;;;;5086378;28;20587;-58
2022/03/10 10:08:05;;;;;;;13.47;8.97;;;;;;;;;;5071905;28;20676;-58
2022/03/10 10:10:32;;;;;;;14.80;9.73;;;;;;;;;;5068573;28;20752;-58
2022/03/10 10:13:00;;;;;;;14.37;10.13;;;;;;;;;;5071331;28;20179;-56
2022/03/10 10:15:32;;;;;;;12.00;9.50;;;;;;;;;;5074630;28;20194;-56
2022/03/10 10:17:59;;;;;;;13.17;9.90;;;;;;;;;;5090452;28;20202;-57
2022/03/10 10:20:30;;;;;;;13.43;9.80;;;;;;;;;;5086618;28;20182;-59
2022/03/10 10:22:56;;;;;;;13.30;9.53;;;;;;;;;;5089982;28;20674;-58
2022/03/10 10:25:23;;;;;;;16.07;11.07;;;;;;;;;;5072338;28;20175;-57
2022/03/10 10:27:49;;;;;;;13.70;9.93;;;;;;;;;;5091528;28;20193;-58
2022/03/10 10:30:16;;;;;;;12.63;10.10;;;;;;;;;;5091704;28;20183;-59
2022/03/10 10:32:49;;;;;;;13.33;9.70;;;;;;;;;;5092257;28;20214;-59
2022/03/10 10:35:21;;;;;;;12.87;9.77;;;;;;;;;;5071577;28;20211;-57
2022/03/10 10:37:52;;;;;;;14.13;9.63;;;;;;;;;;5083297;28;20666;-58
2022/03/10 10:40:22;;;;;;;14.03;10.30;;;;;;;;;;5053756;28;20210;-59
2022/03/10 10:42:49;;;;;;;15.77;10.50;;;;;;;;;;5067925;28;20834;-59
2022/03/10 10:45:28;;;;;;;13.77;9.77;;;;;;;;;;5092737;28;20203;-57
2022/03/10 10:48:05;;;;;;;16.73;11.00;;;;;;;;;;5091036;28;20594;-58
2022/03/10 10:50:32;;;;;;;15.17;10.60;;;;;;;;;;5091465;28;20171;-60
2022/03/10 10:52:59;;;;;;;16.10;10.93;;;;;;;;;;5070441;28;20242;-58
2022/03/10 10:55:35;;;;;;;14.10;10.30;;;;;;;;;;5091518;28;20622;-58
2022/03/10 10:58:11;;;;;;;15.13;10.13;;;;;;;;;;5090196;28;20203;-58
2022/03/10 11:00:49;;;;;;;13.37;10.73;;;;;;;;;;5070389;28;20232;-58
2022/03/10 11:03:31;;;;;;;14.77;9.53;;;;;;;;;;5084437;28;20194;-58
2022/03/10 11:05:57;;;;;;;13.93;10.40;;;;;;;;;;5073424;28;20603;-58
2022/03/10 11:08:24;;;;;;;13.27;10.03;;;;;;;;;;5071606;28;20234;-58
2022/03/10 11:10:51;;;;;;;14.80;10.33;;;;;;;;;;5089843;28;20250;-58
2022/03/10 11:13:17;;;;;;;13.67;9.83;;;;;;;;;;5089600;28;20183;-58
2022/03/10 11:15:44;;;;;;;19.07;11.57;;;;;;;;;;5090636;28;20714;-56
2022/03/10 11:18:10;;;;;;;13.13;9.90;;;;;;;;;;5087606;28;20261;-57
2022/03/10 11:20:39;;;;;;;13.33;9.57;;;;;;;;;;5070780;28;20185;-59
2022/03/10 11:23:13;;;;;;;16.43;11.10;;;;;;;;;;5088258;28;20199;-57
2022/03/10 11:25:49;;;;;;;15.30;11.07;;;;;;;;;;5080846;28;20649;-57
2022/03/10 11:28:21;;;;;;;15.77;10.60;;;;;;;;;;5103815;28;20183;-57
2022/03/10 11:30:51;;;;;;;14.03;10.03;;;;;;;;;;5073008;28;20541;-58
2022/03/10 11:33:18;;;;;;;13.30;10.27;;;;;;;;;;5071970;28;20191;-58
2022/03/10 11:35:48;;;;;;;12.83;10.20;;;;;;;;;;5090906;28;20560;-56
2022/03/10 11:38:15;;;;;;;14.37;10.67;;;;;;;;;;5088959;28;20235;-57
2022/03/10 11:40:45;;;;;;;15.73;10.83;;;;;;;;;;5090658;28;20179;-58
2022/03/10 11:43:12;;;;;;;17.93;12.40;;;;;;;;;;5088889;28;20183;-57
2022/03/10 11:45:38;;;;;;;15.27;10.47;;;;;;;;;;5072519;28;20185;-57
2022/03/10 11:48:23;;;;;;;13.87;10.27;;;;;;;;;;5089924;28;20205;-57
2022/03/10 11:50:52;;;;;;;15.53;11.83;;;;;;;;;;5090475;28;20728;-57
2022/03/10 11:53:19;;;;;;;14.90;11.50;;;;;;;;;;5070409;28;20199;-57
2022/03/10 11:55:48;;;;;;;15.77;11.40;;;;;;;;;;5090325;28;20171;-58
2022/03/10 11:58:15;;;;;;;14.40;11.67;;;;;;;;;;5089332;28;20206;-58
2022/03/10 12:00:49;;;;;;;14.00;10.77;;;;;;;;;;5090593;28;20172;-57
2022/03/10 12:03:27;;;;;;;15.73;12.13;;;;;;;;;;5089150;28;20258;-58
2022/03/10 12:05:58;;;;;;;16.23;11.47;;;;;;;;;;5089965;28;20156;-57
2022/03/10 12:08:25;;;;;;;14.20;11.67;;;;;;;;;;5088867;28;20175;-56
2022/03/10 12:10:52;;;;;;;14.10;11.00;;;;;;;;;;5089558;28;20212;-57
2022/03/10 12:13:32;;;;;;;15.00;11.00;;;;;;;;;;5089166;28;20710;-58
2022/03/10 12:15:59;;;;;;;14.50;10.97;;;;;;;;;;5071520;28;20782;-57
2022/03/10 12:18:28;;;;;;;15.40;11.80;;;;;;;;;;5070365;28;20204;-57
2022/03/10 12:20:55;;;;;;;14.60;11.40;;;;;;;;;;5098627;28;20316;-57
2022/03/10 12:23:23;;;;;;;14.90;11.07;;;;;;;;;;5103209;28;20172;-57
2022/03/10 12:25:49;;;;;;;16.83;12.90;;;;;;;;;;5088159;28;20421;-57
2022/03/10 12:28:35;;;;;;;15.83;12.37;;;;;;;;;;5070574;28;20180;-58
2022/03/10 12:31:01;;;;;;;13.90;10.93;;;;;;;;;;5092470;28;20653;-58
2022/03/10 12:33:28;;;;;;;14.67;10.83;;;;;;;;;;5088308;28;20249;-58
2022/03/10 12:35:58;;;;;;;17.67;10.73;;;;;;;;;;5088670;28;20173;-58
2022/03/10 12:38:35;;;;;;;14.97;11.03;;;;;;;;;;5086448;28;20203;-57
2022/03/10 12:41:02;;;;;;;14.27;10.73;;;;;;;;;;5083142;28;20168;-58
2022/03/10 12:43:28;;;;;;;14.73;11.03;;;;;;;;;;5072797;28;20630;-57
2022/03/10 12:45:55;;;;;;;14.43;10.37;;;;;;;;;;5069233;28;20160;-58
2022/03/10 12:48:37;;;;;;;12.80;10.43;;;;;;;;;;5087072;28;20176;-58
2022/03/10 12:51:03;;;;;;;13.17;9.90;;;;;;;;;;5069361;28;20175;-59
2022/03/10 12:53:32;;;;;;;13.20;10.07;;;;;;;;;;5081793;28;20226;-58
2022/03/10 12:55:59;;;;;;;13.17;10.03;;;;;;;;;;5079845;28;20176;-57
2022/03/10 12:58:31;;;;;;;13.13;9.37;;;;;;;;;;5088154;28;20681;-58
2022/03/10 13:01:07;;;;;;;12.37;9.90;;;;;;;;;;5089222;28;20194;-58
2022/03/10 13:03:37;;;;;;;11.53;9.13;;;;;;;;;;5088340;28;20190;-58
2022/03/10 13:06:08;;;;;;;11.60;9.33;;;;;;;;;;5089290;28;20175;-56
2022/03/10 13:08:40;;;;;;;12.53;9.10;;;;;;;;;;5081794;28;20172;-57
2022/03/10 13:11:07;;;;;;;13.73;9.47;;;;;;;;;;5078580;28;20215;-56
2022/03/10 13:13:33;;;;;;;12.37;8.83;;;;;;;;;;5088802;28;20552;-59
2022/03/10 13:16:00;;;;;;;11.40;9.23;;;;;;;;;;5089121;28;20172;-58
2022/03/10 13:18:26;;;;;;;11.87;8.80;;;;;;;;;;5069611;28;20214;-58
2022/03/10 13:20:52;;;;;;;11.57;8.80;;;;;;;;;;5104006;28;20197;-58
2022/03/10 13:23:24;;;;;;;11.00;8.27;;;;;;;;;;5103524;28;20617;-58
2022/03/10 13:25:50;;;;;;;9.27;8.10;;;;;;;;;;5087579;28;20191;-56
2022/03/10 13:28:17;;;;;;;10.47;7.97;;;;;;;;;;5083463;28;20179;-57
2022/03/10 13:30:43;;;;;;;10.87;8.63;;;;;;;;;;5088659;28;20584;-56
2022/03/10 13:33:10;;;;;;;9.77;7.60;;;;;;;;;;5085566;28;20225;-57
2022/03/10 13:35:47;;;;;;;11.53;7.80;;;;;;;;;;5089992;28;20183;-56
2022/03/10 13:38:18;;;;;;;9.93;8.30;;;;;;;;;;5098441;28;20256;-57
2022/03/10 13:40:44;;;;;;;8.67;7.43;;;;;;;;;;5088220;28;20187;-58
2022/03/10 13:43:19;;;;;;;9.50;7.67;;;;;;;;;;5087964;28;20176;-57
2022/03/10 13:45:46;;;;;;;8.80;7.20;;;;;;;;;;5088611;28;20170;-57
2022/03/10 13:48:18;;;;;;;8.63;7.50;;;;;;;;;;5073626;28;20188;-57
2022/03/10 13:50:44;;;;;;;8.80;7.47;;;;;;;;;;5093019;28;20234;-58
2022/03/10 13:53:11;;;;;;;8.33;6.87;;;;;;;;;;5090778;28;20198;-58
2022/03/10 13:55:37;;;;;;;9.40;7.17;;;;;;;;;;5095125;28;20175;-56
2022/03/10 13:58:04;;;;;;;8.53;6.40;;;;;;;;;;5091907;28;20223;-57
2022/03/10 14:00:31;;;;;;;11.03;7.23;;;;;;;;;;5092745;28;20203;-58
2022/03/10 14:02:58;;;;;;;9.47;6.90;;;;;;;;;;5091637;28;20168;-57
2022/03/10 14:05:25;;;;;;;8.13;6.50;;;;;;;;;;5072334;28;20538;-58
2022/03/10 14:07:52;;;;;;;8.67;6.30;;;;;;;;;;5079605;28;20638;-57
2022/03/10 14:10:27;;;;;;;6.97;5.97;;;;;;;;;;5092203;28;20267;-58
2022/03/10 14:12:54;;;;;;;7.20;5.97;;;;;;;;;;5091714;28;20175;-58
2022/03/10 14:15:37;;;;;;;5.90;5.17;;;;;;;;;;5077187;28;20191;-58
2022/03/10 14:18:15;;;;;;;5.50;5.00;;;;;;;;;;5085891;28;20547;-58
2022/03/10 14:20:44;;;;;;;7.43;5.60;;;;;;;;;;5066317;28;20615;-58
2022/03/10 14:23:13;;;;;;;7.87;5.47;;;;;;;;;;5088183;28;20989;-57
2022/03/10 14:25:47;;;;;;;6.23;5.13;;;;;;;;;;5090785;28;20179;-59
2022/03/10 14:28:14;;;;;;;6.07;4.67;;;;;;;;;;5089075;28;20226;-57
2022/03/10 14:30:40;;;;;;;5.83;4.70;;;;;;;;;;5064709;28;20191;-58
2022/03/10 14:33:07;;;;;;;5.30;3.97;;;;;;;;;;5073505;28;20190;-58
2022/03/10 14:35:33;;;;;;;5.40;4.20;;;;;;;;;;5090084;28;20196;-58
2022/03/10 14:37:59;;;;;;;5.73;4.27;;;;;;;;;;5087252;28;20954;-58
2022/03/10 14:40:26;;;;;;;4.63;4.07;;;;;;;;;;5092749;28;20564;-58
2022/03/10 14:42:52;;;;;;;4.50;4.10;;;;;;;;;;5088090;28;20253;-57